createdAt,value
2022-09-06T00:03:51.377Z,7.21
2022-09-06T00:08:53.265Z,7.22
2022-09-06T00:13:55.146Z,7.32
2022-09-06T00:18:57.332Z,7.40
2022-09-06T00:23:59.405Z,7.45
2022-09-06T00:29:01.589Z,7.48
2022-09-06T00:34:03.567Z,7.48
2022-09-06T00:39:05.320Z,7.44
2022-09-06T00:44:07.223Z,7.38
2022-09-06T00:49:15.751Z,7.32
2022-09-06T00:54:18.448Z,7.31
2022-09-06T00:59:20.529Z,7.34
2022-09-06T01:04:23.533Z,7.34
2022-09-06T01:09:46.197Z,7.28
2022-09-06T01:15:06.921Z,7.16
2022-09-06T01:20:18.111Z,7.06
2022-09-06T01:25:36.680Z,6.97
2022-09-06T01:30:47.711Z,6.87
2022-09-06T01:36:00.607Z,6.76
2022-09-06T01:41:02.322Z,6.66
2022-09-06T01:46:13.624Z,6.55
2022-09-06T01:51:55.898Z,6.43
2022-09-06T01:57:06.690Z,6.34
2022-09-06T02:02:33.960Z,6.25
2022-09-06T02:07:37.968Z,6.16
2022-09-06T02:12:43.243Z,6.09
2022-09-06T02:17:57.917Z,6.02
2022-09-06T02:23:05.940Z,5.97
2022-09-06T02:28:09.701Z,5.93
2022-09-06T02:33:20.549Z,5.89
2022-09-06T02:38:25.055Z,5.87
2022-09-06T02:43:26.962Z,5.83
2022-09-06T02:48:28.782Z,5.81
2022-09-06T02:53:33.379Z,5.81
2022-09-06T02:58:35.462Z,5.80
2022-09-06T03:03:37.234Z,5.84
2022-09-06T03:08:39.112Z,5.92
2022-09-06T03:13:40.885Z,6.02
2022-09-06T03:18:43.068Z,6.04
2022-09-06T03:23:45.562Z,6.03
2022-09-06T03:28:47.744Z,6.03
2022-09-06T03:33:50.031Z,6.05
2022-09-06T03:38:53.749Z,6.10
2022-09-06T03:43:55.628Z,6.11
2022-09-06T03:48:58.834Z,6.11
2022-09-06T03:54:00.711Z,6.11
2022-09-06T03:59:02.588Z,6.11
2022-09-06T04:04:04.465Z,6.10
2022-09-06T04:09:06.238Z,6.13
2022-09-06T04:14:08.015Z,6.16
2022-09-06T04:19:09.891Z,6.22
2022-09-06T04:24:12.075Z,6.35
2022-09-06T04:29:14.052Z,6.55
2022-09-06T04:34:16.135Z,6.83
2022-09-06T04:39:17.910Z,7.42
2022-09-06T04:44:19.785Z,8.04
2022-09-06T04:49:23.300Z,8.83
2022-09-06T04:54:25.897Z,10.61
2022-09-06T04:59:27.672Z,11.53
2022-09-06T05:04:29.453Z,11.62
2022-09-06T05:09:32.753Z,12.06
2022-09-06T05:14:34.835Z,13.58
2022-09-06T05:19:36.815Z,15.24
2022-09-06T05:24:38.690Z,15.31
2022-09-06T05:29:40.568Z,16.46
2022-09-06T05:34:42.649Z,17.98
2022-09-06T05:39:44.407Z,19.58
2022-09-06T05:44:46.300Z,21.13
2022-09-06T05:49:48.425Z,22.22
2022-09-06T05:54:50.052Z,23.14
2022-09-06T05:59:53.159Z,23.59
2022-09-06T06:04:55.244Z,23.64
2022-09-06T06:09:57.119Z,24.15
2022-09-06T06:14:58.994Z,25.14
2022-09-06T06:20:00.870Z,26.00
2022-09-06T06:25:03.875Z,26.49
2022-09-06T06:30:08.456Z,27.60
2022-09-06T06:35:11.420Z,28.31
2022-09-06T06:40:13.845Z,29.49
2022-09-06T06:45:15.889Z,30.42
2022-09-06T06:50:18.070Z,30.67
2022-09-06T06:55:19.947Z,30.71
2022-09-06T07:00:25.172Z,31.24
2022-09-06T07:10:51.589Z,32.17
2022-09-06T07:16:13.739Z,32.83
2022-09-06T07:26:40.302Z,34.07
2022-09-06T07:37:05.791Z,35.23
2022-09-06T07:42:08.329Z,36.05
2022-09-06T07:57:53.849Z,36.98
2022-09-06T08:02:55.727Z,37.44
2022-09-06T08:13:19.754Z,37.65
2022-09-06T08:18:21.635Z,38.19
2022-09-06T08:23:23.569Z,38.58
2022-09-06T08:28:28.771Z,38.78
2022-09-06T08:33:31.054Z,38.37
2022-09-06T08:38:33.849Z,38.49
2022-09-06T08:43:37.468Z,38.90
2022-09-06T08:48:39.669Z,39.03
2022-09-06T08:53:47.762Z,38.62
2022-09-06T08:59:02.042Z,38.59
2022-09-06T09:04:06.977Z,39.33
2022-09-06T09:09:14.618Z,40.07
2022-09-06T09:14:30.862Z,40.04
2022-09-06T09:19:36.379Z,40.25
2022-09-06T09:24:38.867Z,39.94
2022-09-06T09:35:30.448Z,39.95
2022-09-06T09:40:38.771Z,39.59
2022-09-06T09:45:41.262Z,39.20
2022-09-06T09:50:43.244Z,38.74
2022-09-06T09:55:46.758Z,37.60
2022-09-06T10:01:08.543Z,34.92
2022-09-06T10:11:48.608Z,28.10
2022-09-06T10:16:52.018Z,25.91
2022-09-06T10:22:03.625Z,24.38
2022-09-06T10:27:06.322Z,23.04
2022-09-06T10:32:32.472Z,22.41
2022-09-06T10:38:15.302Z,22.26
2022-09-06T10:43:19.861Z,21.79
2022-09-06T10:48:29.576Z,21.48
2022-09-06T10:53:47.867Z,21.10
2022-09-06T11:10:04.866Z,20.69
2022-09-06T11:15:11.899Z,20.63
2022-09-06T11:20:22.556Z,20.18
2022-09-06T11:25:48.909Z,19.40
2022-09-06T11:30:56.607Z,19.08
2022-09-06T11:36:26.033Z,19.39
2022-09-06T11:41:34.568Z,19.79
2022-09-06T11:46:41.132Z,20.00
2022-09-06T11:51:45.083Z,20.04
2022-09-06T11:56:47.059Z,20.07
2022-09-06T12:01:54.979Z,20.13
2022-09-06T12:07:13.139Z,20.08
2022-09-06T12:12:39.312Z,20.02
2022-09-06T12:17:47.712Z,20.03
2022-09-06T12:22:49.490Z,20.13
2022-09-06T12:28:01.089Z,20.18
2022-09-06T12:33:33.286Z,20.19
2022-09-06T12:38:35.052Z,20.38
2022-09-06T12:43:39.084Z,20.61
2022-09-06T12:48:44.335Z,20.66
2022-09-06T12:53:54.509Z,20.20
2022-09-06T12:59:14.006Z,19.84
2022-09-06T13:04:33.587Z,19.94
2022-09-06T13:09:38.299Z,20.15
2022-09-06T13:14:40.413Z,20.41
2022-09-06T13:19:42.326Z,20.60
2022-09-06T13:24:47.624Z,20.63
2022-09-06T13:29:58.644Z,20.63
2022-09-06T13:35:01.232Z,20.71
2022-09-06T13:40:23.281Z,20.73
2022-09-06T13:45:28.783Z,20.78
2022-09-06T13:50:32.360Z,20.81
2022-09-06T13:55:34.956Z,20.77
2022-09-06T14:00:39.087Z,20.72
2022-09-06T14:05:41.678Z,20.52
2022-09-06T14:10:47.591Z,20.35
2022-09-06T14:15:50.397Z,20.31
2022-09-06T14:20:58.879Z,20.28
2022-09-06T14:26:06.077Z,20.13
2022-09-06T14:31:13.088Z,20.03
2022-09-06T14:36:18.404Z,19.97
2022-09-06T14:41:24.758Z,19.85
2022-09-06T14:46:28.415Z,19.74
2022-09-06T14:51:31.646Z,19.59
2022-09-06T14:56:35.852Z,19.38
2022-09-06T15:01:40.914Z,19.18
2022-09-06T15:06:47.718Z,18.96
2022-09-06T15:11:51.540Z,18.75
2022-09-06T15:16:57.617Z,18.62
2022-09-06T15:21:59.493Z,18.50
2022-09-06T15:27:01.477Z,18.40
2022-09-06T15:32:03.453Z,18.32
2022-09-06T15:37:05.332Z,18.25
2022-09-06T15:42:07.310Z,18.19
2022-09-06T15:47:11.131Z,18.11
2022-09-06T15:52:13.119Z,17.99
2022-09-06T15:57:16.864Z,17.90
2022-09-06T16:02:19.207Z,17.81
2022-09-06T16:07:22.431Z,17.73
2022-09-06T16:12:24.618Z,17.62
2022-09-06T16:17:27.108Z,17.49
2022-09-06T16:22:30.415Z,17.33
2022-09-06T16:27:32.301Z,17.17
2022-09-06T16:32:34.472Z,17.02
2022-09-06T16:37:36.359Z,16.85
2022-09-06T16:42:38.642Z,16.68
2022-09-06T16:47:40.724Z,16.51
2022-09-06T16:52:43.016Z,16.33
2022-09-06T16:57:47.957Z,16.14
2022-09-06T17:02:51.984Z,15.95
2022-09-06T17:07:54.166Z,15.74
2022-09-06T17:12:57.515Z,15.52
2022-09-06T17:18:01.397Z,15.30
2022-09-06T17:23:04.011Z,15.08
2022-09-06T17:28:06.086Z,14.82
2022-09-06T17:33:09.091Z,14.56
2022-09-06T17:38:12.553Z,14.29
2022-09-06T17:43:15.770Z,14.00
2022-09-06T17:48:20.450Z,13.75
2022-09-06T17:53:26.434Z,13.51
2022-09-06T17:58:29.956Z,13.29
2022-09-06T18:03:33.222Z,13.11
2022-09-06T18:08:43.710Z,12.99
2022-09-06T18:13:57.755Z,12.85
2022-09-06T18:19:05.553Z,12.83
2022-09-06T18:24:11.490Z,12.80
2022-09-06T18:29:19.065Z,12.78
2022-09-06T18:34:24.017Z,12.73
2022-09-06T18:39:28.610Z,12.67
2022-09-06T18:44:33.652Z,12.59
2022-09-06T18:49:44.304Z,12.52
2022-09-06T18:54:50.481Z,12.45
2022-09-06T19:00:01.123Z,12.36
2022-09-06T19:05:06.964Z,12.26
2022-09-06T19:10:16.071Z,12.16
2022-09-06T19:15:28.152Z,12.06
2022-09-06T19:20:36.946Z,11.96
2022-09-06T19:25:42.192Z,11.88
2022-09-06T19:30:45.220Z,11.81
2022-09-06T19:36:08.039Z,11.71
2022-09-06T19:41:12.620Z,11.60
2022-09-06T19:46:16.007Z,11.50
2022-09-06T19:51:20.163Z,11.44
2022-09-06T19:56:26.696Z,11.35
2022-09-06T20:01:32.492Z,11.24
2022-09-06T20:06:35.419Z,11.13
2022-09-06T20:11:39.842Z,11.02
2022-09-06T20:16:42.854Z,10.93
2022-09-06T20:21:45.555Z,10.85
2022-09-06T20:26:48.142Z,10.76
2022-09-06T20:31:50.207Z,10.66
2022-09-06T20:36:53.032Z,10.53
2022-09-06T20:41:55.097Z,10.44
2022-09-06T20:46:57.966Z,10.32
2022-09-06T20:52:00.106Z,10.20
2022-09-06T20:57:02.365Z,10.06
2022-09-06T21:02:05.954Z,9.93
2022-09-06T21:07:08.991Z,9.82
2022-09-06T21:12:11.589Z,9.71
2022-09-06T21:17:13.560Z,9.64
2022-09-06T21:22:17.704Z,9.59
2022-09-06T21:27:19.782Z,9.55
2022-09-06T21:32:21.650Z,9.52
2022-09-06T21:37:23.525Z,9.47
2022-09-06T21:42:28.065Z,9.36
2022-09-06T21:47:30.966Z,9.21
2022-09-06T21:52:32.743Z,9.07
2022-09-06T21:57:35.034Z,8.97
2022-09-06T22:02:36.923Z,8.88
2022-09-06T22:07:39.291Z,8.79
2022-09-06T22:12:42.438Z,8.70
2022-09-06T22:17:44.686Z,8.61
2022-09-06T22:22:46.667Z,8.54
2022-09-06T22:27:48.541Z,8.46
2022-09-06T22:32:50.825Z,8.37
2022-09-06T22:37:52.703Z,8.30
2022-09-06T22:42:54.580Z,8.23
2022-09-06T22:47:56.566Z,8.15
2022-09-06T22:52:58.434Z,8.08
2022-09-06T22:58:01.337Z,8.02
2022-09-06T23:03:03.217Z,7.97
2022-09-06T23:08:05.702Z,7.91
2022-09-06T23:13:07.991Z,7.88
2022-09-06T23:18:09.866Z,7.84
2022-09-06T23:23:12.257Z,7.77
2022-09-06T23:28:14.645Z,7.72
2022-09-06T23:33:16.729Z,7.67
2022-09-06T23:38:18.704Z,7.61
2022-09-06T23:43:20.582Z,7.58
2022-09-06T23:48:23.078Z,7.54
2022-09-06T23:53:25.054Z,7.50
2022-09-06T23:58:27.346Z,7.45
